sensor_id;sensor_type;location;lat;lon;timestamp;P1;durP1;ratioP1;P2;durP2;ratioP2
57319;SDS011;43158;51.026;18.190;2022-11-20T00:01:30;55.10;;;37.10;;
57319;SDS011;43158;51.026;18.190;2022-11-20T00:03:57;61.20;;;40.20;;
57319;SDS011;43158;51.026;18.190;2022-11-20T00:06:23;57.50;;;37.60;;
57319;SDS011;43158;51.026;18.190;2022-11-20T00:08:53;56.10;;;35.40;;
57319;SDS011;43158;51.026;18.190;2022-11-20T00:11:20;45.10;;;30.50;;
57319;SDS011;43158;51.026;18.190;2022-11-20T00:13:48;50.00;;;34.00;;
57319;SDS011;43158;51.026;18.190;2022-11-20T00:16:17;50.20;;;33.30;;
57319;SDS011;43158;51.026;18.190;2022-11-20T00:18:44;53.10;;;34.70;;
57319;SDS011;43158;51.026;18.190;2022-11-20T00:21:11;47.50;;;33.10;;
57319;SDS011;43158;51.026;18.190;2022-11-20T00:23:39;54.40;;;33.80;;
57319;SDS011;43158;51.026;18.190;2022-11-20T00:26:06;53.20;;;32.80;;
57319;SDS011;43158;51.026;18.190;2022-11-20T00:28:34;66.30;;;35.30;;
57319;SDS011;43158;51.026;18.190;2022-11-20T00:31:00;56.80;;;33.00;;
57319;SDS011;43158;51.026;18.190;2022-11-20T00:33:47;40.60;;;27.50;;
57319;SDS011;43158;51.026;18.190;2022-11-20T00:36:14;55.90;;;34.40;;
57319;SDS011;43158;51.026;18.190;2022-11-20T00:38:41;58.30;;;38.20;;
57319;SDS011;43158;51.026;18.190;2022-11-20T00:41:12;50.70;;;33.20;;
57319;SDS011;43158;51.026;18.190;2022-11-20T00:43:39;50.10;;;33.40;;
57319;SDS011;43158;51.026;18.190;2022-11-20T00:46:15;45.40;;;32.20;;
57319;SDS011;43158;51.026;18.190;2022-11-20T00:48:43;43.60;;;30.50;;
57319;SDS011;43158;51.026;18.190;2022-11-20T00:51:11;47.60;;;32.60;;
57319;SDS011;43158;51.026;18.190;2022-11-20T00:53:38;55.90;;;33.60;;
57319;SDS011;43158;51.026;18.190;2022-11-20T00:56:06;48.20;;;32.90;;
57319;SDS011;43158;51.026;18.190;2022-11-20T00:58:34;48.60;;;31.70;;
57319;SDS011;43158;51.026;18.190;2022-11-20T01:01:02;53.30;;;35.80;;
57319;SDS011;43158;51.026;18.190;2022-11-20T01:03:39;52.60;;;33.80;;
57319;SDS011;43158;51.026;18.190;2022-11-20T01:06:09;49.60;;;33.60;;
57319;SDS011;43158;51.026;18.190;2022-11-20T01:08:39;53.00;;;34.20;;
57319;SDS011;43158;51.026;18.190;2022-11-20T01:11:10;50.30;;;35.00;;
57319;SDS011;43158;51.026;18.190;2022-11-20T01:13:40;52.40;;;34.50;;
57319;SDS011;43158;51.026;18.190;2022-11-20T01:16:09;54.10;;;33.00;;
57319;SDS011;43158;51.026;18.190;2022-11-20T01:18:36;55.60;;;33.60;;
57319;SDS011;43158;51.026;18.190;2022-11-20T01:21:07;54.20;;;37.40;;
57319;SDS011;43158;51.026;18.190;2022-11-20T01:23:42;50.10;;;34.90;;
57319;SDS011;43158;51.026;18.190;2022-11-20T01:26:12;53.10;;;33.30;;
57319;SDS011;43158;51.026;18.190;2022-11-20T01:28:40;53.10;;;37.40;;
57319;SDS011;43158;51.026;18.190;2022-11-20T01:31:18;53.20;;;37.30;;
57319;SDS011;43158;51.026;18.190;2022-11-20T01:33:45;60.90;;;39.70;;
57319;SDS011;43158;51.026;18.190;2022-11-20T01:36:13;56.80;;;37.90;;
57319;SDS011;43158;51.026;18.190;2022-11-20T01:38:39;53.50;;;36.60;;
57319;SDS011;43158;51.026;18.190;2022-11-20T01:41:06;58.40;;;39.40;;
57319;SDS011;43158;51.026;18.190;2022-11-20T01:43:32;55.90;;;39.90;;
57319;SDS011;43158;51.026;18.190;2022-11-20T01:46:08;52.60;;;35.20;;
57319;SDS011;43158;51.026;18.190;2022-11-20T01:56:23;55.80;;;38.30;;
57319;SDS011;43158;51.026;18.190;2022-11-20T01:58:50;54.90;;;37.90;;
57319;SDS011;43158;51.026;18.190;2022-11-20T02:01:19;60.40;;;39.10;;
57319;SDS011;43158;51.026;18.190;2022-11-20T02:03:46;61.60;;;40.10;;
57319;SDS011;43158;51.026;18.190;2022-11-20T02:06:20;58.60;;;40.00;;
57319;SDS011;43158;51.026;18.190;2022-11-20T02:08:50;65.60;;;39.90;;
57319;SDS011;43158;51.026;18.190;2022-11-20T02:11:16;56.80;;;37.70;;
57319;SDS011;43158;51.026;18.190;2022-11-20T02:13:42;57.60;;;38.30;;
57319;SDS011;43158;51.026;18.190;2022-11-20T02:16:22;56.80;;;37.70;;
57319;SDS011;43158;51.026;18.190;2022-11-20T02:18:51;53.30;;;36.80;;
57319;SDS011;43158;51.026;18.190;2022-11-20T02:21:32;59.60;;;39.80;;
57319;SDS011;43158;51.026;18.190;2022-11-20T02:24:12;61.80;;;40.50;;
57319;SDS011;43158;51.026;18.190;2022-11-20T02:29:15;60.80;;;38.50;;
57319;SDS011;43158;51.026;18.190;2022-11-20T02:31:44;60.10;;;37.60;;
57319;SDS011;43158;51.026;18.190;2022-11-20T02:34:10;50.20;;;33.20;;
57319;SDS011;43158;51.026;18.190;2022-11-20T02:36:37;56.10;;;34.70;;
57319;SDS011;43158;51.026;18.190;2022-11-20T02:39:05;58.60;;;35.20;;
57319;SDS011;43158;51.026;18.190;2022-11-20T02:41:35;58.80;;;38.00;;
57319;SDS011;43158;51.026;18.190;2022-11-20T02:44:02;62.90;;;39.60;;
57319;SDS011;43158;51.026;18.190;2022-11-20T02:46:30;58.70;;;40.10;;
57319;SDS011;43158;51.026;18.190;2022-11-20T02:48:57;62.60;;;39.80;;
57319;SDS011;43158;51.026;18.190;2022-11-20T02:51:22;59.30;;;39.10;;
57319;SDS011;43158;51.026;18.190;2022-11-20T02:53:49;48.00;;;33.80;;
57319;SDS011;43158;51.026;18.190;2022-11-20T02:56:15;53.40;;;33.00;;
57319;SDS011;43158;51.026;18.190;2022-11-20T02:58:41;48.60;;;33.80;;
57319;SDS011;43158;51.026;18.190;2022-11-20T03:01:07;50.30;;;35.60;;
57319;SDS011;43158;51.026;18.190;2022-11-20T03:03:33;50.30;;;33.50;;
57319;SDS011;43158;51.026;18.190;2022-11-20T03:05:59;53.80;;;35.10;;
57319;SDS011;43158;51.026;18.190;2022-11-20T03:08:25;50.10;;;33.20;;
57319;SDS011;43158;51.026;18.190;2022-11-20T03:10:51;48.50;;;31.30;;
57319;SDS011;43158;51.026;18.190;2022-11-20T03:13:18;58.40;;;38.60;;
57319;SDS011;43158;51.026;18.190;2022-11-20T03:15:44;54.80;;;37.00;;
57319;SDS011;43158;51.026;18.190;2022-11-20T03:18:10;54.10;;;35.50;;
57319;SDS011;43158;51.026;18.190;2022-11-20T03:20:36;52.00;;;34.00;;
57319;SDS011;43158;51.026;18.190;2022-11-20T03:23:02;54.90;;;35.40;;
57319;SDS011;43158;51.026;18.190;2022-11-20T03:25:28;56.50;;;36.60;;
57319;SDS011;43158;51.026;18.190;2022-11-20T03:27:54;51.40;;;35.10;;
57319;SDS011;43158;51.026;18.190;2022-11-20T03:30:20;45.50;;;31.40;;
57319;SDS011;43158;51.026;18.190;2022-11-20T03:32:47;45.60;;;32.40;;
57319;SDS011;43158;51.026;18.190;2022-11-20T03:35:13;43.80;;;30.00;;
57319;SDS011;43158;51.026;18.190;2022-11-20T03:37:39;47.80;;;33.30;;
57319;SDS011;43158;51.026;18.190;2022-11-20T03:40:05;51.40;;;32.90;;
57319;SDS011;43158;51.026;18.190;2022-11-20T03:42:31;44.00;;;29.60;;
57319;SDS011;43158;51.026;18.190;2022-11-20T03:45:10;59.40;;;38.60;;
57319;SDS011;43158;51.026;18.190;2022-11-20T03:47:37;57.20;;;38.70;;
57319;SDS011;43158;51.026;18.190;2022-11-20T03:50:03;57.90;;;39.60;;
57319;SDS011;43158;51.026;18.190;2022-11-20T03:52:30;59.00;;;39.00;;
57319;SDS011;43158;51.026;18.190;2022-11-20T03:54:55;56.80;;;40.20;;
57319;SDS011;43158;51.026;18.190;2022-11-20T03:57:21;52.50;;;35.70;;
57319;SDS011;43158;51.026;18.190;2022-11-20T03:59:47;54.30;;;36.70;;
57319;SDS011;43158;51.026;18.190;2022-11-20T04:02:13;53.40;;;37.40;;
57319;SDS011;43158;51.026;18.190;2022-11-20T04:04:39;54.80;;;36.00;;
57319;SDS011;43158;51.026;18.190;2022-11-20T04:07:05;47.80;;;34.40;;
57319;SDS011;43158;51.026;18.190;2022-11-20T04:09:31;43.30;;;31.20;;
57319;SDS011;43158;51.026;18.190;2022-11-20T04:11:57;48.10;;;32.30;;
57319;SDS011;43158;51.026;18.190;2022-11-20T04:14:24;50.30;;;33.40;;
57319;SDS011;43158;51.026;18.190;2022-11-20T04:16:50;52.00;;;34.90;;
57319;SDS011;43158;51.026;18.190;2022-11-20T04:19:16;51.10;;;35.40;;
57319;SDS011;43158;51.026;18.190;2022-11-20T04:21:43;50.30;;;30.80;;
57319;SDS011;43158;51.026;18.190;2022-11-20T04:24:10;46.50;;;34.10;;
57319;SDS011;43158;51.026;18.190;2022-11-20T04:26:36;58.20;;;35.20;;
57319;SDS011;43158;51.026;18.190;2022-11-20T04:29:02;50.60;;;33.40;;
57319;SDS011;43158;51.026;18.190;2022-11-20T04:31:29;52.20;;;35.10;;
57319;SDS011;43158;51.026;18.190;2022-11-20T04:34:03;47.30;;;32.10;;
57319;SDS011;43158;51.026;18.190;2022-11-20T04:36:31;53.90;;;36.60;;
57319;SDS011;43158;51.026;18.190;2022-11-20T04:38:58;49.90;;;32.80;;
57319;SDS011;43158;51.026;18.190;2022-11-20T04:41:26;65.20;;;41.90;;
57319;SDS011;43158;51.026;18.190;2022-11-20T04:43:57;62.40;;;39.70;;
57319;SDS011;43158;51.026;18.190;2022-11-20T04:46:27;59.50;;;41.70;;
57319;SDS011;43158;51.026;18.190;2022-11-20T04:48:54;64.50;;;41.70;;
57319;SDS011;43158;51.026;18.190;2022-11-20T04:51:20;64.00;;;43.70;;
57319;SDS011;43158;51.026;18.190;2022-11-20T04:53:46;54.40;;;39.20;;
57319;SDS011;43158;51.026;18.190;2022-11-20T04:56:12;54.90;;;39.30;;
57319;SDS011;43158;51.026;18.190;2022-11-20T04:58:39;59.10;;;39.60;;
57319;SDS011;43158;51.026;18.190;2022-11-20T05:01:06;59.30;;;37.90;;
57319;SDS011;43158;51.026;18.190;2022-11-20T05:03:37;62.90;;;45.50;;
57319;SDS011;43158;51.026;18.190;2022-11-20T05:06:04;58.70;;;39.60;;
57319;SDS011;43158;51.026;18.190;2022-11-20T05:08:31;47.10;;;35.10;;
57319;SDS011;43158;51.026;18.190;2022-11-20T05:11:18;58.20;;;40.20;;
57319;SDS011;43158;51.026;18.190;2022-11-20T05:13:45;74.30;;;45.10;;
57319;SDS011;43158;51.026;18.190;2022-11-20T05:16:12;67.40;;;44.70;;
57319;SDS011;43158;51.026;18.190;2022-11-20T05:18:39;55.80;;;40.80;;
57319;SDS011;43158;51.026;18.190;2022-11-20T05:21:06;62.50;;;42.60;;
57319;SDS011;43158;51.026;18.190;2022-11-20T05:23:33;101.30;;;42.60;;
57319;SDS011;43158;51.026;18.190;2022-11-20T05:25:59;64.90;;;43.10;;
57319;SDS011;43158;51.026;18.190;2022-11-20T05:28:26;64.70;;;43.60;;
57319;SDS011;43158;51.026;18.190;2022-11-20T05:30:53;65.80;;;44.40;;
57319;SDS011;43158;51.026;18.190;2022-11-20T05:33:19;68.40;;;42.20;;
57319;SDS011;43158;51.026;18.190;2022-11-20T05:35:46;65.70;;;43.90;;
57319;SDS011;43158;51.026;18.190;2022-11-20T05:38:12;62.80;;;42.30;;
57319;SDS011;43158;51.026;18.190;2022-11-20T05:40:37;53.90;;;37.10;;
57319;SDS011;43158;51.026;18.190;2022-11-20T05:43:03;52.40;;;35.30;;
57319;SDS011;43158;51.026;18.190;2022-11-20T05:45:29;61.00;;;41.80;;
57319;SDS011;43158;51.026;18.190;2022-11-20T05:47:59;62.50;;;43.50;;
57319;SDS011;43158;51.026;18.190;2022-11-20T05:50:28;67.00;;;44.70;;
57319;SDS011;43158;51.026;18.190;2022-11-20T05:52:54;73.70;;;46.90;;
57319;SDS011;43158;51.026;18.190;2022-11-20T05:55:20;63.50;;;45.10;;
57319;SDS011;43158;51.026;18.190;2022-11-20T05:57:45;63.90;;;38.80;;
57319;SDS011;43158;51.026;18.190;2022-11-20T06:00:12;57.60;;;39.00;;
57319;SDS011;43158;51.026;18.190;2022-11-20T06:02:38;56.70;;;37.70;;
57319;SDS011;43158;51.026;18.190;2022-11-20T06:05:04;62.40;;;42.70;;
57319;SDS011;43158;51.026;18.190;2022-11-20T06:07:31;63.50;;;41.70;;
57319;SDS011;43158;51.026;18.190;2022-11-20T06:09:56;60.60;;;40.10;;
57319;SDS011;43158;51.026;18.190;2022-11-20T06:12:22;68.60;;;46.70;;
57319;SDS011;43158;51.026;18.190;2022-11-20T06:14:48;72.10;;;48.90;;
57319;SDS011;43158;51.026;18.190;2022-11-20T06:17:14;77.80;;;49.40;;
57319;SDS011;43158;51.026;18.190;2022-11-20T06:19:40;71.80;;;48.50;;
57319;SDS011;43158;51.026;18.190;2022-11-20T06:22:06;70.60;;;43.60;;
57319;SDS011;43158;51.026;18.190;2022-11-20T06:24:32;62.10;;;38.50;;
57319;SDS011;43158;51.026;18.190;2022-11-20T06:26:58;67.80;;;43.20;;
57319;SDS011;43158;51.026;18.190;2022-11-20T06:29:24;66.50;;;42.40;;
57319;SDS011;43158;51.026;18.190;2022-11-20T06:31:49;67.20;;;43.20;;
57319;SDS011;43158;51.026;18.190;2022-11-20T06:34:15;66.40;;;43.70;;
57319;SDS011;43158;51.026;18.190;2022-11-20T06:36:41;65.70;;;43.00;;
57319;SDS011;43158;51.026;18.190;2022-11-20T06:39:07;69.20;;;46.70;;
57319;SDS011;43158;51.026;18.190;2022-11-20T06:41:33;84.40;;;51.10;;
57319;SDS011;43158;51.026;18.190;2022-11-20T06:43:59;72.90;;;49.60;;
57319;SDS011;43158;51.026;18.190;2022-11-20T06:46:26;81.90;;;51.70;;
57319;SDS011;43158;51.026;18.190;2022-11-20T06:48:52;63.30;;;42.10;;
57319;SDS011;43158;51.026;18.190;2022-11-20T06:51:18;84.60;;;54.10;;
57319;SDS011;43158;51.026;18.190;2022-11-20T06:53:44;82.40;;;53.30;;
57319;SDS011;43158;51.026;18.190;2022-11-20T06:56:11;84.00;;;54.00;;
57319;SDS011;43158;51.026;18.190;2022-11-20T06:58:37;87.30;;;56.30;;
57319;SDS011;43158;51.026;18.190;2022-11-20T07:01:04;87.20;;;55.60;;
57319;SDS011;43158;51.026;18.190;2022-11-20T07:03:32;80.70;;;54.50;;
57319;SDS011;43158;51.026;18.190;2022-11-20T07:05:58;71.00;;;49.20;;
57319;SDS011;43158;51.026;18.190;2022-11-20T07:08:24;80.90;;;51.00;;
57319;SDS011;43158;51.026;18.190;2022-11-20T07:10:50;80.20;;;53.30;;
57319;SDS011;43158;51.026;18.190;2022-11-20T07:13:16;78.90;;;52.90;;
57319;SDS011;43158;51.026;18.190;2022-11-20T07:15:42;78.70;;;52.30;;
57319;SDS011;43158;51.026;18.190;2022-11-20T07:18:08;94.20;;;54.90;;
57319;SDS011;43158;51.026;18.190;2022-11-20T07:20:33;101.20;;;66.10;;
57319;SDS011;43158;51.026;18.190;2022-11-20T07:22:59;95.00;;;61.50;;
57319;SDS011;43158;51.026;18.190;2022-11-20T07:25:26;102.00;;;69.10;;
57319;SDS011;43158;51.026;18.190;2022-11-20T07:27:56;111.40;;;72.70;;
57319;SDS011;43158;51.026;18.190;2022-11-20T07:30:22;98.00;;;61.60;;
57319;SDS011;43158;51.026;18.190;2022-11-20T07:32:52;103.30;;;68.00;;
57319;SDS011;43158;51.026;18.190;2022-11-20T07:35:18;92.60;;;64.10;;
57319;SDS011;43158;51.026;18.190;2022-11-20T07:37:44;93.60;;;63.90;;
57319;SDS011;43158;51.026;18.190;2022-11-20T07:40:12;93.20;;;65.80;;
57319;SDS011;43158;51.026;18.190;2022-11-20T07:42:47;93.60;;;68.40;;
57319;SDS011;43158;51.026;18.190;2022-11-20T07:45:17;99.40;;;72.40;;
57319;SDS011;43158;51.026;18.190;2022-11-20T07:47:44;104.20;;;74.00;;
57319;SDS011;43158;51.026;18.190;2022-11-20T07:50:10;93.70;;;69.10;;
57319;SDS011;43158;51.026;18.190;2022-11-20T07:52:37;103.00;;;74.10;;
57319;SDS011;43158;51.026;18.190;2022-11-20T07:55:03;97.70;;;75.30;;
57319;SDS011;43158;51.026;18.190;2022-11-20T07:57:29;99.70;;;73.10;;
57319;SDS011;43158;51.026;18.190;2022-11-20T07:59:55;102.60;;;76.20;;
57319;SDS011;43158;51.026;18.190;2022-11-20T08:02:21;104.20;;;78.20;;
57319;SDS011;43158;51.026;18.190;2022-11-20T08:04:47;109.00;;;81.60;;
57319;SDS011;43158;51.026;18.190;2022-11-20T08:07:13;98.30;;;72.50;;
57319;SDS011;43158;51.026;18.190;2022-11-20T08:09:38;99.10;;;78.70;;
57319;SDS011;43158;51.026;18.190;2022-11-20T08:12:04;100.10;;;78.80;;
57319;SDS011;43158;51.026;18.190;2022-11-20T08:14:49;104.40;;;76.10;;
57319;SDS011;43158;51.026;18.190;2022-11-20T08:17:15;107.00;;;79.30;;
57319;SDS011;43158;51.026;18.190;2022-11-20T08:19:41;99.10;;;77.50;;
57319;SDS011;43158;51.026;18.190;2022-11-20T08:22:07;100.90;;;76.50;;
57319;SDS011;43158;51.026;18.190;2022-11-20T08:24:33;112.20;;;83.60;;
57319;SDS011;43158;51.026;18.190;2022-11-20T08:27:01;92.90;;;73.90;;
57319;SDS011;43158;51.026;18.190;2022-11-20T08:29:26;102.10;;;77.70;;
57319;SDS011;43158;51.026;18.190;2022-11-20T08:31:52;98.80;;;76.20;;
57319;SDS011;43158;51.026;18.190;2022-11-20T08:34:18;100.70;;;78.40;;
57319;SDS011;43158;51.026;18.190;2022-11-20T08:36:44;100.20;;;76.70;;
57319;SDS011;43158;51.026;18.190;2022-11-20T08:39:11;86.80;;;70.60;;
57319;SDS011;43158;51.026;18.190;2022-11-20T08:41:38;96.50;;;76.30;;
57319;SDS011;43158;51.026;18.190;2022-11-20T08:44:05;102.00;;;77.40;;
57319;SDS011;43158;51.026;18.190;2022-11-20T08:46:36;95.70;;;77.20;;
57319;SDS011;43158;51.026;18.190;2022-11-20T08:49:07;96.60;;;78.10;;
57319;SDS011;43158;51.026;18.190;2022-11-20T08:51:35;105.70;;;82.00;;
57319;SDS011;43158;51.026;18.190;2022-11-20T08:54:01;97.80;;;80.90;;
57319;SDS011;43158;51.026;18.190;2022-11-20T08:56:28;96.20;;;78.50;;
57319;SDS011;43158;51.026;18.190;2022-11-20T08:58:54;96.80;;;75.50;;
57319;SDS011;43158;51.026;18.190;2022-11-20T09:01:20;96.40;;;77.00;;
57319;SDS011;43158;51.026;18.190;2022-11-20T09:03:47;96.10;;;75.10;;
57319;SDS011;43158;51.026;18.190;2022-11-20T09:06:13;98.70;;;74.10;;
57319;SDS011;43158;51.026;18.190;2022-11-20T09:08:39;93.10;;;71.60;;
57319;SDS011;43158;51.026;18.190;2022-11-20T09:11:05;91.10;;;73.70;;
57319;SDS011;43158;51.026;18.190;2022-11-20T09:13:31;91.40;;;72.20;;
57319;SDS011;43158;51.026;18.190;2022-11-20T09:15:59;92.80;;;75.50;;
57319;SDS011;43158;51.026;18.190;2022-11-20T09:18:30;84.70;;;68.90;;
57319;SDS011;43158;51.026;18.190;2022-11-20T09:21:02;89.40;;;70.20;;
57319;SDS011;43158;51.026;18.190;2022-11-20T09:23:34;98.90;;;76.30;;
57319;SDS011;43158;51.026;18.190;2022-11-20T09:26:02;89.00;;;71.10;;
57319;SDS011;43158;51.026;18.190;2022-11-20T09:28:31;89.20;;;71.60;;
57319;SDS011;43158;51.026;18.190;2022-11-20T09:30:57;88.70;;;70.80;;
57319;SDS011;43158;51.026;18.190;2022-11-20T09:33:23;91.20;;;76.50;;
57319;SDS011;43158;51.026;18.190;2022-11-20T09:35:49;87.10;;;68.80;;
57319;SDS011;43158;51.026;18.190;2022-11-20T09:38:15;83.30;;;68.30;;
57319;SDS011;43158;51.026;18.190;2022-11-20T09:40:53;83.80;;;64.70;;
57319;SDS011;43158;51.026;18.190;2022-11-20T09:45:54;88.10;;;71.40;;
57319;SDS011;43158;51.026;18.190;2022-11-20T09:54:14;90.50;;;79.10;;
57319;SDS011;43158;51.026;18.190;2022-11-20T09:56:53;83.60;;;71.10;;
57319;SDS011;43158;51.026;18.190;2022-11-20T10:02:58;81.30;;;66.90;;
57319;SDS011;43158;51.026;18.190;2022-11-20T10:07:59;70.50;;;59.90;;
57319;SDS011;43158;51.026;18.190;2022-11-20T10:10:36;68.60;;;55.20;;
57319;SDS011;43158;51.026;18.190;2022-11-20T10:13:28;72.00;;;55.60;;
57319;SDS011;43158;51.026;18.190;2022-11-20T10:24:24;67.40;;;54.30;;
57319;SDS011;43158;51.026;18.190;2022-11-20T10:29:53;64.40;;;54.40;;
57319;SDS011;43158;51.026;18.190;2022-11-20T10:32:43;66.10;;;54.20;;
57319;SDS011;43158;51.026;18.190;2022-11-20T10:35:23;61.70;;;50.30;;
57319;SDS011;43158;51.026;18.190;2022-11-20T10:37:57;56.10;;;43.70;;
57319;SDS011;43158;51.026;18.190;2022-11-20T10:43:46;57.10;;;45.90;;
57319;SDS011;43158;51.026;18.190;2022-11-20T10:46:18;56.50;;;46.10;;
57319;SDS011;43158;51.026;18.190;2022-11-20T10:48:47;49.90;;;42.70;;
57319;SDS011;43158;51.026;18.190;2022-11-20T10:54:25;38.70;;;32.30;;
57319;SDS011;43158;51.026;18.190;2022-11-20T10:57:06;34.70;;;30.10;;
57319;SDS011;43158;51.026;18.190;2022-11-20T10:59:42;34.60;;;29.40;;
57319;SDS011;43158;51.026;18.190;2022-11-20T11:02:24;39.30;;;33.30;;
57319;SDS011;43158;51.026;18.190;2022-11-20T11:04:56;39.90;;;34.50;;
57319;SDS011;43158;51.026;18.190;2022-11-20T11:07:30;49.50;;;42.60;;
57319;SDS011;43158;51.026;18.190;2022-11-20T11:10:01;52.10;;;41.00;;
57319;SDS011;43158;51.026;18.190;2022-11-20T11:12:28;48.10;;;41.30;;
57319;SDS011;43158;51.026;18.190;2022-11-20T11:14:55;53.20;;;43.40;;
57319;SDS011;43158;51.026;18.190;2022-11-20T11:17:27;52.90;;;44.20;;
57319;SDS011;43158;51.026;18.190;2022-11-20T11:22:34;28.20;;;23.90;;
57319;SDS011;43158;51.026;18.190;2022-11-20T11:25:07;28.90;;;25.50;;
57319;SDS011;43158;51.026;18.190;2022-11-20T11:27:48;31.40;;;26.40;;
57319;SDS011;43158;51.026;18.190;2022-11-20T11:30:15;29.50;;;25.20;;
57319;SDS011;43158;51.026;18.190;2022-11-20T11:32:42;29.50;;;24.30;;
57319;SDS011;43158;51.026;18.190;2022-11-20T11:35:27;30.00;;;25.50;;
57319;SDS011;43158;51.026;18.190;2022-11-20T11:38:00;28.20;;;25.10;;
57319;SDS011;43158;51.026;18.190;2022-11-20T11:40:33;31.60;;;26.40;;
57319;SDS011;43158;51.026;18.190;2022-11-20T11:43:02;37.90;;;29.40;;
57319;SDS011;43158;51.026;18.190;2022-11-20T11:45:54;33.30;;;27.60;;
57319;SDS011;43158;51.026;18.190;2022-11-20T11:48:21;37.50;;;29.60;;
57319;SDS011;43158;51.026;18.190;2022-11-20T11:50:50;33.90;;;29.20;;
57319;SDS011;43158;51.026;18.190;2022-11-20T11:53:18;37.00;;;29.00;;
57319;SDS011;43158;51.026;18.190;2022-11-20T11:56:02;39.70;;;30.60;;
57319;SDS011;43158;51.026;18.190;2022-11-20T12:01:34;38.50;;;33.10;;
57319;SDS011;43158;51.026;18.190;2022-11-20T12:07:07;40.50;;;31.40;;
57319;SDS011;43158;51.026;18.190;2022-11-20T12:09:54;38.30;;;32.70;;
57319;SDS011;43158;51.026;18.190;2022-11-20T12:12:42;40.80;;;34.00;;
57319;SDS011;43158;51.026;18.190;2022-11-20T12:15:10;42.60;;;34.70;;
57319;SDS011;43158;51.026;18.190;2022-11-20T12:17:39;41.10;;;32.90;;
57319;SDS011;43158;51.026;18.190;2022-11-20T12:20:11;37.90;;;31.00;;
57319;SDS011;43158;51.026;18.190;2022-11-20T12:22:56;43.00;;;33.50;;
57319;SDS011;43158;51.026;18.190;2022-11-20T12:25:46;39.80;;;31.60;;
57319;SDS011;43158;51.026;18.190;2022-11-20T12:28:18;44.10;;;34.10;;
57319;SDS011;43158;51.026;18.190;2022-11-20T12:33:48;41.90;;;33.00;;
57319;SDS011;43158;51.026;18.190;2022-11-20T12:36:37;40.30;;;33.00;;
57319;SDS011;43158;51.026;18.190;2022-11-20T12:39:22;31.80;;;22.60;;
57319;SDS011;43158;51.026;18.190;2022-11-20T12:42:19;33.30;;;27.70;;
57319;SDS011;43158;51.026;18.190;2022-11-20T12:56:32;38.40;;;30.90;;
57319;SDS011;43158;51.026;18.190;2022-11-20T13:02:03;42.60;;;31.60;;
57319;SDS011;43158;51.026;18.190;2022-11-20T13:07:19;43.70;;;35.00;;
57319;SDS011;43158;51.026;18.190;2022-11-20T13:09:46;40.30;;;33.30;;
57319;SDS011;43158;51.026;18.190;2022-11-20T13:15:08;39.80;;;31.40;;
57319;SDS011;43158;51.026;18.190;2022-11-20T13:17:56;38.10;;;29.00;;
57319;SDS011;43158;51.026;18.190;2022-11-20T13:20:24;42.70;;;33.90;;
57319;SDS011;43158;51.026;18.190;2022-11-20T13:22:53;39.70;;;33.80;;
57319;SDS011;43158;51.026;18.190;2022-11-20T13:25:24;38.60;;;32.10;;
57319;SDS011;43158;51.026;18.190;2022-11-20T13:28:01;41.30;;;33.20;;
57319;SDS011;43158;51.026;18.190;2022-11-20T13:30:31;38.10;;;32.30;;
57319;SDS011;43158;51.026;18.190;2022-11-20T13:32:58;37.30;;;31.60;;
57319;SDS011;43158;51.026;18.190;2022-11-20T13:35:34;35.50;;;30.30;;
57319;SDS011;43158;51.026;18.190;2022-11-20T13:38:10;34.50;;;29.50;;
57319;SDS011;43158;51.026;18.190;2022-11-20T13:40:52;38.90;;;31.60;;
57319;SDS011;43158;51.026;18.190;2022-11-20T13:43:57;38.80;;;33.10;;
57319;SDS011;43158;51.026;18.190;2022-11-20T13:46:15;40.30;;;33.60;;
57319;SDS011;43158;51.026;18.190;2022-11-20T13:48:44;39.00;;;32.30;;
57319;SDS011;43158;51.026;18.190;2022-11-20T14:02:16;44.70;;;36.10;;
57319;SDS011;43158;51.026;18.190;2022-11-20T14:04:46;44.80;;;38.00;;
57319;SDS011;43158;51.026;18.190;2022-11-20T14:07:16;45.40;;;37.70;;
57319;SDS011;43158;51.026;18.190;2022-11-20T14:09:50;49.10;;;41.40;;
57319;SDS011;43158;51.026;18.190;2022-11-20T14:12:19;56.40;;;47.90;;
57319;SDS011;43158;51.026;18.190;2022-11-20T14:14:51;55.00;;;44.60;;
57319;SDS011;43158;51.026;18.190;2022-11-20T14:17:19;54.70;;;44.20;;
57319;SDS011;43158;51.026;18.190;2022-11-20T14:19:50;54.70;;;42.90;;
57319;SDS011;43158;51.026;18.190;2022-11-20T14:27:42;59.80;;;46.10;;
57319;SDS011;43158;51.026;18.190;2022-11-20T14:30:13;59.60;;;44.60;;
57319;SDS011;43158;51.026;18.190;2022-11-20T14:32:41;53.30;;;42.60;;
57319;SDS011;43158;51.026;18.190;2022-11-20T14:35:09;57.80;;;43.70;;
57319;SDS011;43158;51.026;18.190;2022-11-20T14:37:37;56.00;;;42.10;;
57319;SDS011;43158;51.026;18.190;2022-11-20T14:40:14;59.20;;;41.70;;
57319;SDS011;43158;51.026;18.190;2022-11-20T14:42:48;60.90;;;43.60;;
57319;SDS011;43158;51.026;18.190;2022-11-20T14:45:14;58.80;;;41.80;;
57319;SDS011;43158;51.026;18.190;2022-11-20T14:47:40;58.40;;;45.10;;
57319;SDS011;43158;51.026;18.190;2022-11-20T14:50:17;64.30;;;45.30;;
57319;SDS011;43158;51.026;18.190;2022-11-20T14:53:00;62.60;;;45.50;;
57319;SDS011;43158;51.026;18.190;2022-11-20T14:55:33;74.40;;;52.10;;
57319;SDS011;43158;51.026;18.190;2022-11-20T14:58:02;72.60;;;52.20;;
57319;SDS011;43158;51.026;18.190;2022-11-20T15:00:29;69.70;;;49.30;;
57319;SDS011;43158;51.026;18.190;2022-11-20T15:02:56;75.50;;;51.70;;
57319;SDS011;43158;51.026;18.190;2022-11-20T15:05:43;67.20;;;49.60;;
57319;SDS011;43158;51.026;18.190;2022-11-20T15:08:12;70.90;;;49.50;;
57319;SDS011;43158;51.026;18.190;2022-11-20T15:10:47;77.80;;;56.90;;
57319;SDS011;43158;51.026;18.190;2022-11-20T15:13:24;80.10;;;55.80;;
57319;SDS011;43158;51.026;18.190;2022-11-20T15:15:58;79.90;;;56.30;;
57319;SDS011;43158;51.026;18.190;2022-11-20T15:20:51;78.00;;;54.60;;
57319;SDS011;43158;51.026;18.190;2022-11-20T15:23:18;78.40;;;54.50;;
57319;SDS011;43158;51.026;18.190;2022-11-20T15:25:45;70.50;;;49.80;;
57319;SDS011;43158;51.026;18.190;2022-11-20T15:31:15;86.00;;;58.80;;
57319;SDS011;43158;51.026;18.190;2022-11-20T15:33:43;80.50;;;56.30;;
57319;SDS011;43158;51.026;18.190;2022-11-20T15:36:09;84.70;;;55.90;;
57319;SDS011;43158;51.026;18.190;2022-11-20T15:38:35;88.70;;;57.90;;
57319;SDS011;43158;51.026;18.190;2022-11-20T15:41:01;89.60;;;58.40;;
57319;SDS011;43158;51.026;18.190;2022-11-20T15:43:29;81.80;;;57.70;;
57319;SDS011;43158;51.026;18.190;2022-11-20T15:45:55;82.10;;;56.30;;
57319;SDS011;43158;51.026;18.190;2022-11-20T15:48:31;83.10;;;56.40;;
57319;SDS011;43158;51.026;18.190;2022-11-20T15:51:02;71.10;;;46.80;;
57319;SDS011;43158;51.026;18.190;2022-11-20T15:53:32;65.70;;;46.60;;
57319;SDS011;43158;51.026;18.190;2022-11-20T15:55:58;74.90;;;50.00;;
57319;SDS011;43158;51.026;18.190;2022-11-20T15:58:24;75.80;;;52.20;;